sensor_id;sensor_type;location;lat;lon;timestamp;pressure;altitude;pressure_sealevel;temperature;humidity
48846;BME280;34665;51.886;5.436;2023-04-10T00:01:00;101923.78;;;12.27;100.00
48846;BME280;34665;51.886;5.436;2023-04-10T00:03:25;101918.53;;;12.11;100.00
48846;BME280;34665;51.886;5.436;2023-04-10T00:05:52;101914.09;;;12.03;100.00
48846;BME280;34665;51.886;5.436;2023-04-10T00:08:22;101909.94;;;12.15;100.00
48846;BME280;34665;51.886;5.436;2023-04-10T00:10:47;101907.00;;;11.79;100.00
48846;BME280;34665;51.886;5.436;2023-04-10T00:13:13;101896.63;;;11.75;100.00
48846;BME280;34665;51.886;5.436;2023-04-10T00:15:38;101890.41;;;11.83;100.00
48846;BME280;34665;51.886;5.436;2023-04-10T00:18:04;101882.50;;;11.58;100.00
48846;BME280;34665;51.886;5.436;2023-04-10T00:20:29;101876.94;;;11.68;100.00
48846;BME280;34665;51.886;5.436;2023-04-10T00:22:55;101877.75;;;11.69;100.00
48846;BME280;34665;51.886;5.436;2023-04-10T00:25:20;101875.97;;;11.84;100.00
48846;BME280;34665;51.886;5.436;2023-04-10T00:27:47;101869.91;;;11.90;100.00
48846;BME280;34665;51.886;5.436;2023-04-10T00:30:12;101872.50;;;11.75;100.00
48846;BME280;34665;51.886;5.436;2023-04-10T00:32:37;101876.56;;;11.95;100.00
48846;BME280;34665;51.886;5.436;2023-04-10T00:35:03;101865.19;;;12.01;100.00
48846;BME280;34665;51.886;5.436;2023-04-10T00:37:28;101858.81;;;11.94;100.00
48846;BME280;34665;51.886;5.436;2023-04-10T00:39:53;101854.28;;;11.94;100.00
48846;BME280;34665;51.886;5.436;2023-04-10T00:42:19;101861.69;;;11.92;100.00
48846;BME280;34665;51.886;5.436;2023-04-10T00:44:44;101854.16;;;11.87;100.00
48846;BME280;34665;51.886;5.436;2023-04-10T00:47:11;101844.09;;;11.89;100.00
48846;BME280;34665;51.886;5.436;2023-04-10T00:49:36;101847.31;;;11.85;100.00
48846;BME280;34665;51.886;5.436;2023-04-10T00:52:02;101846.84;;;11.81;100.00
48846;BME280;34665;51.886;5.436;2023-04-10T00:54:27;101848.09;;;11.94;100.00
48846;BME280;34665;51.886;5.436;2023-04-10T00:56:53;101844.41;;;11.95;100.00
48846;BME280;34665;51.886;5.436;2023-04-10T00:59:20;101841.06;;;11.93;100.00
48846;BME280;34665;51.886;5.436;2023-04-10T01:01:46;101842.38;;;11.97;100.00
48846;BME280;34665;51.886;5.436;2023-04-10T01:04:11;101842.56;;;11.95;100.00
48846;BME280;34665;51.886;5.436;2023-04-10T01:06:57;101839.50;;;11.98;100.00
48846;BME280;34665;51.886;5.436;2023-04-10T01:16:57;101836.66;;;12.00;100.00
48846;BME280;34665;51.886;5.436;2023-04-10T01:22:10;101829.19;;;11.87;100.00
48846;BME280;34665;51.886;5.436;2023-04-10T01:24:46;101822.09;;;11.79;100.00
48846;BME280;34665;51.886;5.436;2023-04-10T01:29:44;101826.63;;;12.02;100.00
48846;BME280;34665;51.886;5.436;2023-04-10T01:32:12;101822.41;;;11.99;100.00
48846;BME280;34665;51.886;5.436;2023-04-10T01:34:42;101820.25;;;12.03;100.00
48846;BME280;34665;51.886;5.436;2023-04-10T01:37:13;101811.56;;;11.93;100.00
48846;BME280;34665;51.886;5.436;2023-04-10T01:39:40;101816.94;;;11.93;100.00
48846;BME280;34665;51.886;5.436;2023-04-10T01:42:08;101818.31;;;11.88;100.00
48846;BME280;34665;51.886;5.436;2023-04-10T01:44:37;101812.88;;;11.97;100.00
48846;BME280;34665;51.886;5.436;2023-04-10T01:47:05;101808.88;;;11.93;100.00
48846;BME280;34665;51.886;5.436;2023-04-10T01:49:31;101805.69;;;11.97;100.00
48846;BME280;34665;51.886;5.436;2023-04-10T01:52:01;101789.84;;;11.87;100.00
48846;BME280;34665;51.886;5.436;2023-04-10T01:54:27;101802.31;;;11.80;100.00
48846;BME280;34665;51.886;5.436;2023-04-10T01:56:53;101793.53;;;11.86;100.00
48846;BME280;34665;51.886;5.436;2023-04-10T01:59:19;101800.00;;;11.77;100.00
48846;BME280;34665;51.886;5.436;2023-04-10T02:01:45;101790.94;;;11.78;100.00
48846;BME280;34665;51.886;5.436;2023-04-10T02:04:11;101794.91;;;12.05;100.00
48846;BME280;34665;51.886;5.436;2023-04-10T02:06:40;101787.53;;;11.84;100.00
48846;BME280;34665;51.886;5.436;2023-04-10T02:11:42;101782.09;;;11.93;100.00
48846;BME280;34665;51.886;5.436;2023-04-10T02:14:09;101788.25;;;11.78;100.00
48846;BME280;34665;51.886;5.436;2023-04-10T02:16:36;101783.22;;;11.75;100.00
48846;BME280;34665;51.886;5.436;2023-04-10T02:19:03;101789.69;;;11.89;100.00
48846;BME280;34665;51.886;5.436;2023-04-10T02:21:29;101787.94;;;11.73;100.00
48846;BME280;34665;51.886;5.436;2023-04-10T02:23:56;101781.28;;;11.69;100.00
48846;BME280;34665;51.886;5.436;2023-04-10T02:26:22;101781.94;;;11.71;100.00
48846;BME280;34665;51.886;5.436;2023-04-10T02:28:47;101783.16;;;11.68;100.00
48846;BME280;34665;51.886;5.436;2023-04-10T02:31:13;101772.44;;;11.68;100.00
48846;BME280;34665;51.886;5.436;2023-04-10T02:33:38;101781.47;;;11.67;100.00
48846;BME280;34665;51.886;5.436;2023-04-10T02:36:04;101775.03;;;11.76;100.00
48846;BME280;34665;51.886;5.436;2023-04-10T02:38:29;101776.03;;;11.75;100.00
48846;BME280;34665;51.886;5.436;2023-04-10T02:40:55;101777.31;;;11.65;100.00
48846;BME280;34665;51.886;5.436;2023-04-10T02:43:20;101781.16;;;11.62;100.00
48846;BME280;34665;51.886;5.436;2023-04-10T02:45:46;101778.69;;;11.60;100.00
48846;BME280;34665;51.886;5.436;2023-04-10T02:48:17;101775.28;;;11.67;100.00
48846;BME280;34665;51.886;5.436;2023-04-10T02:50:48;101779.44;;;11.69;100.00
48846;BME280;34665;51.886;5.436;2023-04-10T02:53:19;101780.03;;;11.80;100.00
48846;BME280;34665;51.886;5.436;2023-04-10T02:55:52;101786.88;;;11.82;100.00
48846;BME280;34665;51.886;5.436;2023-04-10T02:58:18;101787.56;;;11.76;100.00
48846;BME280;34665;51.886;5.436;2023-04-10T03:00:47;101787.28;;;11.71;100.00
48846;BME280;34665;51.886;5.436;2023-04-10T03:03:17;101792.13;;;11.75;100.00
48846;BME280;34665;51.886;5.436;2023-04-10T03:05:47;101788.66;;;11.67;100.00
48846;BME280;34665;51.886;5.436;2023-04-10T03:08:21;101786.88;;;11.59;100.00
48846;BME280;34665;51.886;5.436;2023-04-10T03:10:48;101788.78;;;11.50;100.00
48846;BME280;34665;51.886;5.436;2023-04-10T03:13:14;101787.06;;;11.57;100.00
48846;BME280;34665;51.886;5.436;2023-04-10T03:15:39;101793.91;;;11.37;100.00
48846;BME280;34665;51.886;5.436;2023-04-10T03:18:05;101785.81;;;11.45;100.00
48846;BME280;34665;51.886;5.436;2023-04-10T03:20:31;101791.69;;;11.40;100.00
48846;BME280;34665;51.886;5.436;2023-04-10T03:23:00;101787.47;;;11.46;100.00
48846;BME280;34665;51.886;5.436;2023-04-10T03:25:27;101782.34;;;11.36;100.00
48846;BME280;34665;51.886;5.436;2023-04-10T03:27:53;101778.28;;;11.40;100.00
48846;BME280;34665;51.886;5.436;2023-04-10T03:30:19;101775.88;;;11.30;100.00
48846;BME280;34665;51.886;5.436;2023-04-10T03:32:46;101778.19;;;11.33;100.00
48846;BME280;34665;51.886;5.436;2023-04-10T03:35:12;101765.63;;;11.34;100.00
48846;BME280;34665;51.886;5.436;2023-04-10T03:37:37;101768.13;;;11.36;100.00
48846;BME280;34665;51.886;5.436;2023-04-10T03:40:05;101770.19;;;11.25;100.00
48846;BME280;34665;51.886;5.436;2023-04-10T03:42:31;101767.88;;;11.22;100.00
48846;BME280;34665;51.886;5.436;2023-04-10T03:44:57;101765.63;;;11.34;100.00
48846;BME280;34665;51.886;5.436;2023-04-10T03:47:23;101763.16;;;11.32;100.00
48846;BME280;34665;51.886;5.436;2023-04-10T03:49:50;101760.84;;;11.21;100.00
48846;BME280;34665;51.886;5.436;2023-04-10T03:52:16;101755.69;;;11.19;100.00
48846;BME280;34665;51.886;5.436;2023-04-10T03:54:41;101763.03;;;11.17;100.00
48846;BME280;34665;51.886;5.436;2023-04-10T03:57:16;101763.38;;;10.91;100.00
48846;BME280;34665;51.886;5.436;2023-04-10T03:59:44;101754.47;;;10.99;100.00
48846;BME280;34665;51.886;5.436;2023-04-10T04:02:11;101753.19;;;10.86;100.00
48846;BME280;34665;51.886;5.436;2023-04-10T04:04:37;101741.97;;;10.83;100.00
48846;BME280;34665;51.886;5.436;2023-04-10T04:07:18;101746.31;;;10.84;100.00
48846;BME280;34665;51.886;5.436;2023-04-10T04:10:07;101737.97;;;10.87;100.00
48846;BME280;34665;51.886;5.436;2023-04-10T04:12:46;101736.69;;;10.74;100.00
48846;BME280;34665;51.886;5.436;2023-04-10T04:15:25;101737.38;;;10.68;100.00
48846;BME280;34665;51.886;5.436;2023-04-10T04:18:13;101729.53;;;10.67;100.00
48846;BME280;34665;51.886;5.436;2023-04-10T04:20:46;101727.59;;;10.52;100.00
48846;BME280;34665;51.886;5.436;2023-04-10T04:23:18;101723.34;;;10.66;100.00
48846;BME280;34665;51.886;5.436;2023-04-10T04:26:02;101727.25;;;10.55;100.00
48846;BME280;34665;51.886;5.436;2023-04-10T04:28:53;101727.91;;;10.57;100.00
48846;BME280;34665;51.886;5.436;2023-04-10T04:31:38;101728.41;;;10.53;100.00
48846;BME280;34665;51.886;5.436;2023-04-10T04:34:15;101735.72;;;10.67;100.00
48846;BME280;34665;51.886;5.436;2023-04-10T04:37:02;101734.22;;;10.65;100.00
48846;BME280;34665;51.886;5.436;2023-04-10T04:39:47;101726.53;;;10.61;100.00
48846;BME280;34665;51.886;5.436;2023-04-10T04:42:21;101724.22;;;10.58;100.00
48846;BME280;34665;51.886;5.436;2023-04-10T04:45:01;101720.03;;;10.64;100.00
48846;BME280;34665;51.886;5.436;2023-04-10T04:47:53;101720.69;;;10.66;100.00
48846;BME280;34665;51.886;5.436;2023-04-10T04:50:26;101711.66;;;10.59;100.00
48846;BME280;34665;51.886;5.436;2023-04-10T04:53:30;101713.75;;;10.32;100.00
48846;BME280;34665;51.886;5.436;2023-04-10T04:56:06;101709.56;;;10.38;100.00
48846;BME280;34665;51.886;5.436;2023-04-10T04:59:04;101704.41;;;10.28;100.00
48846;BME280;34665;51.886;5.436;2023-04-10T05:01:53;101712.63;;;10.18;100.00
48846;BME280;34665;51.886;5.436;2023-04-10T05:04:31;101714.31;;;10.02;100.00
48846;BME280;34665;51.886;5.436;2023-04-10T05:07:07;101706.81;;;9.89;100.00
48846;BME280;34665;51.886;5.436;2023-04-10T05:09:52;101706.28;;;10.02;100.00
48846;BME280;34665;51.886;5.436;2023-04-10T05:12:33;101699.63;;;10.07;100.00
48846;BME280;34665;51.886;5.436;2023-04-10T05:15:02;101696.78;;;10.16;100.00
48846;BME280;34665;51.886;5.436;2023-04-10T05:17:47;101692.75;;;10.12;100.00
48846;BME280;34665;51.886;5.436;2023-04-10T05:20:35;101687.53;;;10.27;100.00
48846;BME280;34665;51.886;5.436;2023-04-10T05:23:12;101684.34;;;10.40;100.00
48846;BME280;34665;51.886;5.436;2023-04-10T05:25:58;101689.16;;;10.37;100.00
48846;BME280;34665;51.886;5.436;2023-04-10T05:28:42;101693.56;;;10.21;100.00
48846;BME280;34665;51.886;5.436;2023-04-10T05:31:22;101695.25;;;10.14;100.00
48846;BME280;34665;51.886;5.436;2023-04-10T05:33:56;101695.22;;;10.30;100.00
48846;BME280;34665;51.886;5.436;2023-04-10T05:36:33;101696.91;;;10.23;100.00
48846;BME280;34665;51.886;5.436;2023-04-10T05:39:17;101693.38;;;10.31;100.00
48846;BME280;34665;51.886;5.436;2023-04-10T05:42:04;101691.84;;;10.37;100.00
48846;BME280;34665;51.886;5.436;2023-04-10T05:44:43;101685.97;;;10.50;100.00
48846;BME280;34665;51.886;5.436;2023-04-10T05:47:34;101685.63;;;10.53;100.00
48846;BME280;34665;51.886;5.436;2023-04-10T05:50:33;101683.59;;;10.55;100.00
48846;BME280;34665;51.886;5.436;2023-04-10T05:53:11;101686.63;;;10.52;100.00
48846;BME280;34665;51.886;5.436;2023-04-10T05:56:09;101688.28;;;10.53;100.00
48846;BME280;34665;51.886;5.436;2023-04-10T05:58:55;101694.31;;;10.55;100.00
48846;BME280;34665;51.886;5.436;2023-04-10T06:01:36;101695.72;;;10.42;100.00
48846;BME280;34665;51.886;5.436;2023-04-10T06:04:02;101696.97;;;10.55;100.00
48846;BME280;34665;51.886;5.436;2023-04-10T06:06:28;101685.66;;;10.44;100.00
48846;BME280;34665;51.886;5.436;2023-04-10T06:08:54;101683.47;;;10.48;100.00
48846;BME280;34665;51.886;5.436;2023-04-10T06:11:20;101685.41;;;10.63;100.00
48846;BME280;34665;51.886;5.436;2023-04-10T06:13:49;101681.47;;;10.50;100.00
48846;BME280;34665;51.886;5.436;2023-04-10T06:16:15;101683.91;;;10.60;100.00
48846;BME280;34665;51.886;5.436;2023-04-10T06:18:42;101676.03;;;10.67;100.00
48846;BME280;34665;51.886;5.436;2023-04-10T06:21:08;101672.13;;;10.78;100.00
48846;BME280;34665;51.886;5.436;2023-04-10T06:23:34;101674.56;;;10.87;100.00
48846;BME280;34665;51.886;5.436;2023-04-10T06:26:00;101663.69;;;10.89;100.00
48846;BME280;34665;51.886;5.436;2023-04-10T06:28:28;101674.34;;;10.97;100.00
48846;BME280;34665;51.886;5.436;2023-04-10T06:30:57;101667.97;;;10.98;100.00
48846;BME280;34665;51.886;5.436;2023-04-10T06:33:29;101665.72;;;10.87;100.00
48846;BME280;34665;51.886;5.436;2023-04-10T06:35:55;101647.19;;;11.09;100.00
48846;BME280;34665;51.886;5.436;2023-04-10T06:38:22;101645.25;;;11.17;100.00
48846;BME280;34665;51.886;5.436;2023-04-10T06:40:47;101646.56;;;11.22;100.00
48846;BME280;34665;51.886;5.436;2023-04-10T06:43:12;101641.22;;;11.22;100.00
48846;BME280;34665;51.886;5.436;2023-04-10T06:45:38;101641.91;;;11.39;100.00
48846;BME280;34665;51.886;5.436;2023-04-10T06:48:03;101638.94;;;11.33;100.00
48846;BME280;34665;51.886;5.436;2023-04-10T06:50:29;101631.31;;;11.45;100.00
48846;BME280;34665;51.886;5.436;2023-04-10T06:52:54;101624.78;;;11.78;100.00
48846;BME280;34665;51.886;5.436;2023-04-10T06:55:23;101623.84;;;11.71;100.00
48846;BME280;34665;51.886;5.436;2023-04-10T06:57:49;101623.41;;;11.97;100.00
48846;BME280;34665;51.886;5.436;2023-04-10T07:00:15;101619.81;;;12.05;100.00
48846;BME280;34665;51.886;5.436;2023-04-10T07:02:40;101615.25;;;11.90;100.00
48846;BME280;34665;51.886;5.436;2023-04-10T07:05:06;101616.38;;;11.81;100.00
48846;BME280;34665;51.886;5.436;2023-04-10T07:07:31;101612.94;;;11.87;100.00
48846;BME280;34665;51.886;5.436;2023-04-10T07:09:57;101610.28;;;11.87;100.00
48846;BME280;34665;51.886;5.436;2023-04-10T07:12:23;101606.19;;;12.22;100.00
48846;BME280;34665;51.886;5.436;2023-04-10T07:14:48;101602.78;;;12.28;100.00
48846;BME280;34665;51.886;5.436;2023-04-10T07:17:14;101587.50;;;12.28;100.00
48846;BME280;34665;51.886;5.436;2023-04-10T07:19:39;101585.94;;;12.34;100.00
48846;BME280;34665;51.886;5.436;2023-04-10T07:22:05;101586.53;;;12.51;100.00
48846;BME280;34665;51.886;5.436;2023-04-10T07:24:31;101579.09;;;12.53;100.00
48846;BME280;34665;51.886;5.436;2023-04-10T07:26:56;101573.19;;;12.58;100.00
48846;BME280;34665;51.886;5.436;2023-04-10T07:29:22;101571.66;;;12.70;100.00
48846;BME280;34665;51.886;5.436;2023-04-10T07:31:48;101558.75;;;12.81;100.00
48846;BME280;34665;51.886;5.436;2023-04-10T07:34:13;101562.13;;;12.89;100.00
48846;BME280;34665;51.886;5.436;2023-04-10T07:36:39;101566.78;;;13.02;100.00
48846;BME280;34665;51.886;5.436;2023-04-10T07:39:04;101553.50;;;13.23;100.00
48846;BME280;34665;51.886;5.436;2023-04-10T07:41:29;101555.06;;;13.10;100.00
48846;BME280;34665;51.886;5.436;2023-04-10T07:43:55;101555.69;;;13.41;100.00
48846;BME280;34665;51.886;5.436;2023-04-10T07:46:21;101551.31;;;13.61;100.00
48846;BME280;34665;51.886;5.436;2023-04-10T07:48:46;101546.41;;;13.72;99.50
48846;BME280;34665;51.886;5.436;2023-04-10T07:51:12;101554.31;;;13.45;96.78
48846;BME280;34665;51.886;5.436;2023-04-10T07:53:37;101551.19;;;13.83;96.88
48846;BME280;34665;51.886;5.436;2023-04-10T07:56:03;101558.81;;;13.73;95.71
48846;BME280;34665;51.886;5.436;2023-04-10T07:58:28;101540.06;;;13.93;94.46
48846;BME280;34665;51.886;5.436;2023-04-10T08:00:54;101550.00;;;13.93;93.16
48846;BME280;34665;51.886;5.436;2023-04-10T08:03:19;101547.69;;;13.83;93.25
48846;BME280;34665;51.886;5.436;2023-04-10T08:05:45;101526.31;;;13.68;91.81
48846;BME280;34665;51.886;5.436;2023-04-10T08:08:10;101526.63;;;13.93;92.95
48846;BME280;34665;51.886;5.436;2023-04-10T08:10:36;101523.97;;;14.00;93.45
48846;BME280;34665;51.886;5.436;2023-04-10T08:13:03;101530.59;;;13.97;92.40
48846;BME280;34665;51.886;5.436;2023-04-10T08:15:28;101521.53;;;14.12;92.34
48846;BME280;34665;51.886;5.436;2023-04-10T08:17:53;101525.69;;;14.14;90.70
48846;BME280;34665;51.886;5.436;2023-04-10T08:20:19;101522.38;;;14.12;92.90
48846;BME280;34665;51.886;5.436;2023-04-10T08:22:45;101519.28;;;14.22;90.24
48846;BME280;34665;51.886;5.436;2023-04-10T08:25:10;101528.59;;;14.19;89.35
48846;BME280;34665;51.886;5.436;2023-04-10T08:27:36;101526.16;;;14.38;91.13
48846;BME280;34665;51.886;5.436;2023-04-10T08:30:01;101530.72;;;14.44;91.29
48846;BME280;34665;51.886;5.436;2023-04-10T08:32:27;101514.78;;;14.56;90.72
48846;BME280;34665;51.886;5.436;2023-04-10T08:34:53;101521.19;;;14.55;91.23
48846;BME280;34665;51.886;5.436;2023-04-10T08:37:19;101506.72;;;14.63;89.95
48846;BME280;34665;51.886;5.436;2023-04-10T08:39:45;101513.16;;;15.02;90.25
48846;BME280;34665;51.886;5.436;2023-04-10T08:42:10;101504.66;;;15.12;88.19
48846;BME280;34665;51.886;5.436;2023-04-10T08:44:36;101501.13;;;15.12;87.94
48846;BME280;34665;51.886;5.436;2023-04-10T08:47:02;101504.69;;;14.79;87.18
48846;BME280;34665;51.886;5.436;2023-04-10T08:49:30;101494.72;;;14.72;87.56
48846;BME280;34665;51.886;5.436;2023-04-10T08:51:57;101494.72;;;14.79;87.53
48846;BME280;34665;51.886;5.436;2023-04-10T08:54:24;101491.00;;;14.73;89.79
48846;BME280;34665;51.886;5.436;2023-04-10T08:56:51;101495.34;;;14.88;89.13
48846;BME280;34665;51.886;5.436;2023-04-10T08:59:17;101500.94;;;14.86;88.44
48846;BME280;34665;51.886;5.436;2023-04-10T09:01:44;101492.25;;;15.04;87.66
48846;BME280;34665;51.886;5.436;2023-04-10T09:04:10;101495.31;;;15.22;88.79
48846;BME280;34665;51.886;5.436;2023-04-10T09:06:36;101498.59;;;15.37;88.23
48846;BME280;34665;51.886;5.436;2023-04-10T09:09:02;101487.84;;;15.24;88.26
48846;BME280;34665;51.886;5.436;2023-04-10T09:11:54;101470.94;;;15.62;87.42
48846;BME280;34665;51.886;5.436;2023-04-10T09:14:24;101478.97;;;15.16;86.45
48846;BME280;34665;51.886;5.436;2023-04-10T09:16:52;101460.88;;;15.37;86.44
48846;BME280;34665;51.886;5.436;2023-04-10T09:19:36;101462.78;;;15.16;86.83
48846;BME280;34665;51.886;5.436;2023-04-10T09:22:02;101457.03;;;14.99;87.00
48846;BME280;34665;51.886;5.436;2023-04-10T09:24:27;101456.34;;;15.24;85.91
48846;BME280;34665;51.886;5.436;2023-04-10T09:26:53;101445.69;;;15.49;86.11
48846;BME280;34665;51.886;5.436;2023-04-10T09:29:19;101446.97;;;15.40;86.18
48846;BME280;34665;51.886;5.436;2023-04-10T09:31:44;101446.94;;;15.47;86.00
48846;BME280;34665;51.886;5.436;2023-04-10T09:34:21;101440.00;;;15.65;84.49
48846;BME280;34665;51.886;5.436;2023-04-10T09:39:20;101440.28;;;15.56;85.56
48846;BME280;34665;51.886;5.436;2023-04-10T09:41:52;101424.38;;;15.80;85.11
48846;BME280;34665;51.886;5.436;2023-04-10T09:44:36;101417.53;;;15.77;85.63
48846;BME280;34665;51.886;5.436;2023-04-10T09:47:17;101417.41;;;15.66;84.69
48846;BME280;34665;51.886;5.436;2023-04-10T09:49:48;101406.25;;;15.55;84.63
48846;BME280;34665;51.886;5.436;2023-04-10T09:52:33;101395.19;;;15.70;84.86
48846;BME280;34665;51.886;5.436;2023-04-10T09:57:25;101391.53;;;15.97;85.37
48846;BME280;34665;51.886;5.436;2023-04-10T09:59:51;101391.91;;;16.00;84.32
48846;BME280;34665;51.886;5.436;2023-04-10T10:02:18;101392.31;;;16.04;84.60
48846;BME280;34665;51.886;5.436;2023-04-10T10:04:45;101393.00;;;16.25;84.65
48846;BME280;34665;51.886;5.436;2023-04-10T10:07:15;101391.94;;;16.26;84.28
48846;BME280;34665;51.886;5.436;2023-04-10T10:09:42;101387.59;;;16.25;83.69
48846;BME280;34665;51.886;5.436;2023-04-10T10:12:11;101398.34;;;16.31;83.34
48846;BME280;34665;51.886;5.436;2023-04-10T10:14:50;101387.56;;;16.31;84.37
48846;BME280;34665;51.886;5.436;2023-04-10T10:17:18;101383.63;;;16.53;83.63
48846;BME280;34665;51.886;5.436;2023-04-10T10:22:40;101364.88;;;16.58;80.14
48846;BME280;34665;51.886;5.436;2023-04-10T10:25:06;101366.41;;;16.91;79.71
48846;BME280;34665;51.886;5.436;2023-04-10T10:27:33;101366.44;;;17.10;79.37
48846;BME280;34665;51.886;5.436;2023-04-10T10:30:00;101353.34;;;17.06;80.22
48846;BME280;34665;51.886;5.436;2023-04-10T10:32:27;101367.91;;;17.24;78.99
48846;BME280;34665;51.886;5.436;2023-04-10T10:34:53;101354.47;;;17.17;78.33
48846;BME280;34665;51.886;5.436;2023-04-10T10:37:18;101339.34;;;17.47;76.97
48846;BME280;34665;51.886;5.436;2023-04-10T10:42:31;101334.97;;;17.46;77.06
48846;BME280;34665;51.886;5.436;2023-04-10T10:45:01;101336.59;;;17.35;78.89
48846;BME280;34665;51.886;5.436;2023-04-10T10:47:30;101330.00;;;17.31;78.44
48846;BME280;34665;51.886;5.436;2023-04-10T10:50:00;101328.81;;;17.57;78.88
48846;BME280;34665;51.886;5.436;2023-04-10T10:52:36;101317.78;;;17.71;78.40
48846;BME280;34665;51.886;5.436;2023-04-10T10:57:46;101302.09;;;18.15;75.53
48846;BME280;34665;51.886;5.436;2023-04-10T11:00:13;101304.22;;;18.25;74.26
48846;BME280;34665;51.886;5.436;2023-04-10T11:02:39;101297.75;;;18.14;75.34
48846;BME280;34665;51.886;5.436;2023-04-10T11:05:04;101301.16;;;18.22;77.08
48846;BME280;34665;51.886;5.436;2023-04-10T11:13:16;101289.63;;;18.14;74.83
48846;BME280;34665;51.886;5.436;2023-04-10T11:15:42;101273.38;;;18.38;75.41
48846;BME280;34665;51.886;5.436;2023-04-10T11:18:08;101285.94;;;18.56;74.18
48846;BME280;34665;51.886;5.436;2023-04-10T11:21:06;101272.09;;;18.82;75.58
48846;BME280;34665;51.886;5.436;2023-04-10T11:23:20;101273.34;;;18.91;72.98
48846;BME280;34665;51.886;5.436;2023-04-10T11:25:46;101276.94;;;19.20;72.35
48846;BME280;34665;51.886;5.436;2023-04-10T11:31:18;101261.47;;;20.01;68.59
48846;BME280;34665;51.886;5.436;2023-04-10T11:36:24;101239.78;;;20.24;67.01
48846;BME280;34665;51.886;5.436;2023-04-10T11:41:24;101229.16;;;20.00;67.67
48846;BME280;34665;51.886;5.436;2023-04-10T11:43:50;101234.00;;;19.81;67.29
48846;BME280;34665;51.886;5.436;2023-04-10T11:46:16;101227.28;;;20.00;68.24
48846;BME280;34665;51.886;5.436;2023-04-10T11:48:41;101220.53;;;19.52;67.00
48846;BME280;34665;51.886;5.436;2023-04-10T11:51:07;101212.88;;;19.31;66.85
48846;BME280;34665;51.886;5.436;2023-04-10T11:53:33;101227.84;;;19.51;66.25
48846;BME280;34665;51.886;5.436;2023-04-10T11:55:58;101225.69;;;19.53;67.89
48846;BME280;34665;51.886;5.436;2023-04-10T11:58:24;101213.78;;;19.54;66.74
48846;BME280;34665;51.886;5.436;2023-04-10T12:01:09;101211.16;;;19.76;66.38
48846;BME280;34665;51.886;5.436;2023-04-10T12:03:39;101204.88;;;20.10;66.47
48846;BME280;34665;51.886;5.436;2023-04-10T12:06:12;101207.19;;;19.67;66.78
48846;BME280;34665;51.886;5.436;2023-04-10T12:08:41;101188.22;;;19.84;66.61
48846;BME280;34665;51.886;5.436;2023-04-10T12:11:08;101196.47;;;20.56;66.49
48846;BME280;34665;51.886;5.436;2023-04-10T12:13:33;101201.81;;;20.73;65.90
48846;BME280;34665;51.886;5.436;2023-04-10T12:16:00;101206.16;;;20.74;64.58
48846;BME280;34665;51.886;5.436;2023-04-10T12:18:26;101194.75;;;20.72;63.04
48846;BME280;34665;51.886;5.436;2023-04-10T12:20:52;101194.53;;;21.01;61.93
48846;BME280;34665;51.886;5.436;2023-04-10T12:23:21;101177.25;;;21.18;62.07
48846;BME280;34665;51.886;5.436;2023-04-10T12:25:46;101185.38;;;21.45;62.54
48846;BME280;34665;51.886;5.436;2023-04-10T12:28:20;101172.72;;;20.96;62.06
48846;BME280;34665;51.886;5.436;2023-04-10T12:30:49;101168.72;;;20.76;63.86
48846;BME280;34665;51.886;5.436;2023-04-10T12:33:21;101160.63;;;20.32;63.91
48846;BME280;34665;51.886;5.436;2023-04-10T12:35:46;101165.97;;;20.04;64.82
48846;BME280;34665;51.886;5.436;2023-04-10T12:38:12;101152.97;;;20.06;65.06
48846;BME280;34665;51.886;5.436;2023-04-10T12:40:37;101163.28;;;19.87;65.89
48846;BME280;34665;51.886;5.436;2023-04-10T12:43:04;101141.16;;;19.96;65.39
48846;BME280;34665;51.886;5.436;2023-04-10T12:45:42;101137.69;;;19.44;66.99
48846;BME280;34665;51.886;5.436;2023-04-10T12:48:07;101128.25;;;19.29;67.73
48846;BME280;34665;51.886;5.436;2023-04-10T12:50:33;101131.28;;;19.16;68.69
48846;BME280;34665;51.886;5.436;2023-04-10T12:53:09;101122.59;;;19.31;68.83
48846;BME280;34665;51.886;5.436;2023-04-10T12:55:36;101129.59;;;18.98;68.87
48846;BME280;34665;51.886;5.436;2023-04-10T12:58:15;101116.97;;;19.03;69.14
48846;BME280;34665;51.886;5.436;2023-04-10T13:00:52;101118.25;;;18.84;71.01
48846;BME280;34665;51.886;5.436;2023-04-10T13:03:18;101109.69;;;18.75;70.72
48846;BME280;34665;51.886;5.436;2023-04-10T13:05:43;101107.72;;;18.70;70.26
48846;BME280;34665;51.886;5.436;2023-04-10T13:08:09;101089.47;;;18.48;70.08
48846;BME280;34665;51.886;5.436;2023-04-10T13:10:34;101072.91;;;18.62;70.64
48846;BME280;34665;51.886;5.436;2023-04-10T13:13:02;101069.03;;;18.58;70.96
48846;BME280;34665;51.886;5.436;2023-04-10T13:15:28;101069.31;;;18.73;71.74
48846;BME280;34665;51.886;5.436;2023-04-10T13:17:54;101093.59;;;18.68;71.94
48846;BME280;34665;51.886;5.436;2023-04-10T13:20:19;101071.75;;;18.75;72.51
48846;BME280;34665;51.886;5.436;2023-04-10T13:22:45;101065.91;;;18.66;72.55
48846;BME280;34665;51.886;5.436;2023-04-10T13:25:10;101057.78;;;18.66;73.31
48846;BME280;34665;51.886;5.436;2023-04-10T13:27:36;101054.91;;;18.56;73.22
48846;BME280;34665;51.886;5.436;2023-04-10T13:30:01;101046.78;;;18.39;73.76
48846;BME280;34665;51.886;5.436;2023-04-10T13:32:27;101048.63;;;18.38;74.70
48846;BME280;34665;51.886;5.436;2023-04-10T13:34:52;101026.53;;;18.58;74.30
48846;BME280;34665;51.886;5.436;2023-04-10T13:37:18;101020.28;;;18.58;74.80
48846;BME280;34665;51.886;5.436;2023-04-10T13:39:44;101013.66;;;18.66;75.71